Time;durP1;ratioP1;P1;durP2;ratioP2;P2;SDS_P1;SDS_P2;PMS_P1;PMS_P2;Temp;Humidity;BMP_temperature;BMP_pressure;BME280_temperature;BME280_humidity;BME280_pressure;Samples;Min_cycle;Max_cycle;Signal;HPM_P1;HPM_P2
2022/03/23 05:22:38;;;;;;;41.42;19.17;;;;;;;0.40;95.83;101698.53;5129867;27;20671;-70
2022/03/23 05:25:05;;;;;;;45.28;20.33;;;;;;;0.42;96.26;101690.56;5129982;28;20096;-70
2022/03/23 05:27:39;;;;;;;35.47;17.50;;;;;;;0.42;96.37;101703.69;5129763;28;20050;-70
2022/03/23 05:30:07;;;;;;;31.25;17.30;;;;;;;0.47;95.98;101709.56;5140946;22;20101;-69
2022/03/23 05:32:34;;;;;;;33.45;17.15;;;;;;;0.44;94.99;101702.69;5108855;28;20149;-69
2022/03/23 05:34:59;;;;;;;37.47;18.30;;;;;;;0.51;95.68;101705.84;5109010;28;20039;-70
2022/03/23 05:37:25;;;;;;;34.70;18.33;;;;;;;0.48;95.44;101714.72;5108941;28;20427;-69
2022/03/23 05:39:51;;;;;;;36.35;17.52;;;;;;;0.52;94.68;101713.66;5108866;28;20035;-69
2022/03/23 05:42:17;;;;;;;30.75;17.38;;;;;;;0.53;94.14;101709.28;5108413;28;20035;-69
2022/03/23 05:44:42;;;;;;;30.27;16.02;;;;;;;0.42;94.53;101707.16;5108774;28;20027;-69
2022/03/23 05:47:08;;;;;;;29.02;15.23;;;;;;;0.41;94.08;101709.84;5108768;28;20042;-69
2022/03/23 05:49:34;;;;;;;31.35;16.77;;;;;;;0.45;94.98;101722.72;5109001;28;20044;-69
2022/03/23 05:51:59;;;;;;;30.90;15.73;;;;;;;0.50;94.63;101719.91;5108278;28;20067;-69
2022/03/23 05:54:25;;;;;;;32.75;15.88;;;;;;;0.65;94.43;101723.53;5108648;28;20046;-69
2022/03/23 05:56:51;;;;;;;33.63;15.48;;;;;;;0.55;94.75;101728.41;5108585;28;20047;-69
2022/03/23 05:59:18;;;;;;;35.28;16.20;;;;;;;0.62;95.19;101731.56;5108456;28;20040;-68
2022/03/23 06:01:44;;;;;;;29.70;16.00;;;;;;;0.65;94.85;101728.78;5108130;28;20429;-69
2022/03/23 06:04:09;;;;;;;31.80;16.58;;;;;;;0.57;94.70;101731.78;5108318;28;20036;-70
2022/03/23 06:06:35;;;;;;;28.30;16.23;;;;;;;0.68;95.32;101726.88;5108408;28;20089;-69
2022/03/23 06:09:01;;;;;;;29.90;16.27;;;;;;;0.77;96.30;101728.22;5090092;28;20040;-69
2022/03/23 06:11:26;;;;;;;27.58;15.68;;;;;;;0.78;95.52;101717.66;5108048;28;20039;-69
2022/03/23 06:13:52;;;;;;;25.27;14.88;;;;;;;1.01;94.60;101729.63;5108099;28;20088;-69
2022/03/23 06:16:18;;;;;;;28.70;15.63;;;;;;;1.17;93.63;101732.34;5108289;28;20032;-69
2022/03/23 06:18:44;;;;;;;23.85;14.70;;;;;;;1.36;92.50;101732.25;5108154;28;20515;-69
2022/03/23 06:21:09;;;;;;;29.50;16.02;;;;;;;1.52;92.80;101727.94;5107908;28;20062;-69
2022/03/23 06:23:35;;;;;;;26.17;15.23;;;;;;;1.67;91.47;101730.69;5107812;28;20027;-69
2022/03/23 06:26:01;;;;;;;27.75;14.73;;;;;;;1.90;90.58;101733.81;5108032;28;20032;-69
2022/03/23 06:28:27;;;;;;;23.38;13.10;;;;;;;2.05;91.25;101728.66;5107978;28;20038;-69
2022/03/23 06:30:53;;;;;;;27.52;15.10;;;;;;;2.29;90.84;101731.75;5107965;28;20416;-69
2022/03/23 06:33:20;;;;;;;24.73;14.48;;;;;;;2.35;89.42;101734.91;5096791;28;20461;-69
2022/03/23 06:35:46;;;;;;;29.63;16.05;;;;;;;2.59;87.90;101734.44;5094265;28;20028;-69
2022/03/23 06:38:12;;;;;;;22.98;13.23;;;;;;;2.76;88.13;101733.50;5094382;28;20054;-69
2022/03/23 06:40:38;;;;;;;24.65;15.13;;;;;;;2.76;87.75;101734.38;5094350;28;20128;-69
2022/03/23 06:43:04;;;;;;;26.77;14.52;;;;;;;3.03;87.79;101741.63;5093906;28;20039;-69
2022/03/23 06:45:30;;;;;;;24.67;14.93;;;;;;;3.22;86.05;101742.25;5094078;28;20404;-69
2022/03/23 06:47:57;;;;;;;26.00;14.95;;;;;;;3.50;85.25;101744.94;5092806;28;20400;-69
2022/03/23 06:50:22;;;;;;;26.65;14.10;;;;;;;3.78;85.57;101751.19;5094230;28;20105;-69
2022/03/23 06:52:48;;;;;;;26.90;15.48;;;;;;;4.03;83.17;101742.63;5092606;28;20488;-69
2022/03/23 06:55:14;;;;;;;23.33;14.32;;;;;;;4.25;82.25;101739.53;5092729;28;20488;-69
2022/03/23 06:57:40;;;;;;;28.75;14.90;;;;;;;4.54;81.87;101749.06;5093835;28;20089;-68
2022/03/23 07:00:13;;;;;;;28.48;15.10;;;;;;;4.63;79.89;101740.56;5093785;28;20043;-68
2022/03/23 07:02:47;;;;;;;23.50;14.52;;;;;;;4.97;77.45;101742.81;5076091;28;20044;-68
2022/03/23 07:05:14;;;;;;;30.70;14.95;;;;;;;5.15;78.14;101742.44;5093757;28;20520;-68
2022/03/23 07:10:31;;;;;;;27.75;15.18;;;;;;;5.05;77.45;101745.78;5073422;28;20443;-70
2022/03/23 07:12:57;;;;;;;25.80;13.70;;;;;;;5.23;77.19;101749.00;5093338;28;20036;-69
2022/03/23 07:15:24;;;;;;;28.25;16.00;;;;;;;5.55;76.23;101752.97;5093488;28;20119;-69
2022/03/23 07:17:50;;;;;;;27.00;14.32;;;;;;;5.82;76.12;101763.47;5093476;28;20028;-69
2022/03/23 07:20:16;;;;;;;25.50;15.20;;;;;;;5.76;73.39;101757.75;5093293;28;20028;-69
2022/03/23 07:22:42;;;;;;;30.60;15.48;;;;;;;5.89;73.51;101758.59;5093123;28;20036;-70
2022/03/23 07:25:08;;;;;;;26.02;14.85;;;;;;;6.03;71.24;101765.59;5093446;28;20112;-70
2022/03/23 07:27:33;;;;;;;29.58;15.18;;;;;;;5.97;71.09;101766.88;5092053;28;20036;-71
2022/03/23 07:29:59;;;;;;;25.33;15.95;;;;;;;6.06;72.48;101768.84;5093161;28;20047;-71
2022/03/23 07:32:25;;;;;;;25.58;14.77;;;;;;;6.39;71.87;101772.72;5092950;28;20097;-71
2022/03/23 07:34:50;;;;;;;23.92;14.68;;;;;;;6.76;70.74;101769.13;5093517;28;20072;-71
2022/03/23 07:37:16;;;;;;;27.65;14.25;;;;;;;6.73;68.87;101773.81;5093472;28;20473;-71
2022/03/23 07:39:43;;;;;;;25.27;14.30;;;;;;;6.68;66.54;101771.50;5093075;28;20373;-70
2022/03/23 07:42:09;;;;;;;27.40;15.30;;;;;;;6.81;67.33;101768.81;5092752;28;20040;-70
2022/03/23 07:44:34;;;;;;;30.55;16.58;;;;;;;6.86;65.80;101776.41;5091976;28;20031;-70
2022/03/23 07:47:01;;;;;;;24.75;15.18;;;;;;;7.07;64.27;101774.84;5093354;28;20142;-70
2022/03/23 07:49:26;;;;;;;34.03;16.05;;;;;;;7.46;62.73;101784.25;5093328;28;20445;-70
2022/03/23 07:51:52;;;;;;;28.73;15.35;;;;;;;7.72;62.83;101781.44;5092644;28;20115;-70
2022/03/23 07:54:18;;;;;;;27.33;15.20;;;;;;;7.77;61.02;101769.53;5093017;28;20408;-70
2022/03/23 07:56:44;;;;;;;28.38;16.50;;;;;;;7.93;62.35;101777.13;5092925;28;20082;-70
2022/03/23 07:59:10;;;;;;;25.67;14.10;;;;;;;7.93;62.05;101784.25;5093110;28;20024;-71
2022/03/23 08:01:36;;;;;;;29.55;15.18;;;;;;;8.09;62.03;101787.41;5092557;28;20094;-71
2022/03/23 08:04:01;;;;;;;31.02;15.30;;;;;;;8.09;61.76;101784.75;5092527;28;20126;-71
2022/03/23 08:06:30;;;;;;;27.70;14.68;;;;;;;8.13;60.49;101787.03;5092687;28;20396;-71
2022/03/23 08:08:56;;;;;;;26.85;15.27;;;;;;;8.49;60.72;101773.66;5092670;28;20158;-71
2022/03/23 08:11:22;;;;;;;33.75;15.48;;;;;;;8.57;60.18;101784.53;5091012;28;20036;-71
2022/03/23 08:13:48;;;;;;;30.17;15.38;;;;;;;8.52;59.30;101789.34;5092549;28;20559;-71
2022/03/23 08:16:13;;;;;;;29.52;15.98;;;;;;;8.57;58.50;101785.34;5091172;28;20043;-71
2022/03/23 08:18:39;;;;;;;30.27;15.70;;;;;;;8.72;60.08;101788.59;5091114;28;20050;-71
2022/03/23 08:21:05;;;;;;;24.77;14.85;;;;;;;8.70;59.13;101786.06;5092648;28;20036;-71
2022/03/23 08:23:31;;;;;;;22.88;13.55;;;;;;;9.07;58.54;101783.06;5092545;28;20046;-71
2022/03/23 08:25:57;;;;;;;26.05;14.60;;;;;;;9.25;60.02;101776.22;5092639;28;20106;-71
2022/03/23 08:28:23;;;;;;;25.38;14.30;;;;;;;9.61;57.79;101782.09;5092345;28;20032;-70
2022/03/23 08:30:48;;;;;;;25.65;14.98;;;;;;;9.69;56.87;101784.09;5092061;28;20036;-71
2022/03/23 08:33:15;;;;;;;25.02;14.88;;;;;;;9.60;56.86;101785.72;5091685;28;20040;-71
2022/03/23 08:35:41;;;;;;;25.10;13.85;;;;;;;10.00;57.00;101780.50;5092588;28;20135;-70
2022/03/23 08:38:07;;;;;;;25.73;15.52;;;;;;;10.21;56.48;101784.94;5092465;28;20111;-71
2022/03/23 08:40:35;;;;;;;25.42;14.98;;;;;;;10.46;54.25;101781.84;5092561;28;20040;-71
2022/03/23 08:43:02;;;;;;;28.30;15.55;;;;;;;10.16;53.47;101784.50;5091887;28;20488;-71
2022/03/23 08:45:28;;;;;;;28.10;15.07;;;;;;;10.51;53.43;101781.47;5090665;28;20039;-71
2022/03/23 08:47:54;;;;;;;29.25;14.15;;;;;;;10.46;51.50;101779.19;5091875;28;20031;-71
2022/03/23 08:50:20;;;;;;;24.25;13.95;;;;;;;10.71;52.04;101783.19;5091769;28;20068;-70
2022/03/23 08:52:46;;;;;;;21.92;14.50;;;;;;;10.66;50.62;101777.41;5091622;28;20049;-70
2022/03/23 08:55:14;;;;;;;28.13;13.90;;;;;;;11.01;50.07;101771.56;5091522;28;20388;-70
2022/03/23 08:57:41;;;;;;;23.45;14.25;;;;;;;11.25;51.36;101776.50;5090530;28;20036;-70
2022/03/23 09:00:09;;;;;;;25.20;13.82;;;;;;;11.68;49.86;101773.38;5091673;28;20047;-70
2022/03/23 09:02:34;;;;;;;24.27;14.32;;;;;;;11.93;48.65;101768.41;5091507;28;20043;-70
2022/03/23 09:05:00;;;;;;;22.42;13.30;;;;;;;11.74;48.05;101768.47;5091992;28;20122;-70
2022/03/23 09:07:26;;;;;;;22.65;13.70;;;;;;;12.13;48.07;101772.72;5090428;28;20032;-71
2022/03/23 09:09:51;;;;;;;25.67;14.15;;;;;;;11.64;48.33;101766.63;5091657;28;20042;-70
2022/03/23 09:12:17;;;;;;;26.75;14.38;;;;;;;12.30;46.66;101770.25;5091550;28;20043;-70
2022/03/23 09:14:43;;;;;;;25.17;14.30;;;;;;;12.42;46.67;101761.91;5091559;28;20048;-71
2022/03/23 09:17:09;;;;;;;21.70;13.32;;;;;;;12.59;48.36;101770.13;5092581;28;20040;-70
2022/03/23 09:19:35;;;;;;;27.83;15.10;;;;;;;12.42;46.70;101771.75;5091941;28;20080;-70
2022/03/23 09:22:00;;;;;;;23.05;14.10;;;;;;;12.76;46.52;101763.94;5091437;28;20039;-71
2022/03/23 09:24:27;;;;;;;27.15;15.13;;;;;;;13.00;47.59;101758.84;5090322;28;20121;-71
2022/03/23 09:26:55;;;;;;;23.50;13.90;;;;;;;13.34;45.38;101758.19;5091652;28;20165;-71
2022/03/23 09:29:21;;;;;;;21.80;14.38;;;;;;;13.47;44.34;101761.31;5091512;28;20028;-71
2022/03/23 09:31:47;;;;;;;20.08;13.35;;;;;;;13.93;43.82;101745.03;5089714;28;20381;-70
2022/03/23 09:34:13;;;;;;;24.88;13.82;;;;;;;14.21;43.31;101748.34;5091539;28;20032;-71
2022/03/23 09:39:23;;;;;;;22.85;13.90;;;;;;;14.90;41.01;101750.78;5090575;28;20046;-70
2022/03/23 09:41:49;;;;;;;20.50;13.52;;;;;;;15.13;40.35;101739.44;5089660;28;20028;-70
2022/03/23 09:44:15;;;;;;;23.13;16.00;;;;;;;15.29;38.59;101746.63;5089980;28;20105;-70
2022/03/23 09:46:42;;;;;;;25.20;13.88;;;;;;;15.55;37.76;101749.97;5091581;28;20443;-70
2022/03/23 09:49:08;;;;;;;23.45;14.88;;;;;;;15.67;37.83;101735.22;5091352;28;20055;-70
2022/03/23 09:51:37;;;;;;;23.40;15.40;;;;;;;15.36;38.79;101739.59;5089753;28;20079;-70
2022/03/23 09:54:03;;;;;;;23.90;14.80;;;;;;;15.80;39.64;101740.06;5091127;28;20400;-69
2022/03/23 09:56:29;;;;;;;25.42;15.90;;;;;;;16.27;37.84;101733.88;5091206;28;20039;-70
2022/03/23 09:58:55;;;;;;;24.73;14.93;;;;;;;17.00;35.93;101721.88;5090300;28;20111;-70
2022/03/23 10:01:44;;;;;;;26.55;15.05;;;;;;;16.98;35.63;101719.38;5091142;28;20107;-70
2022/03/23 10:04:13;;;;;;;24.20;15.15;;;;;;;17.04;34.73;101732.09;5084310;28;20044;-70
2022/03/23 10:07:02;;;;;;;21.45;14.25;;;;;;;17.28;36.03;101720.31;5091053;28;20077;-70
2022/03/23 10:10:25;;;;;;;22.10;15.25;;;;;;;17.60;33.16;101718.31;5093882;28;20032;-69
2022/03/23 10:13:12;;;;;;;25.60;14.23;;;;;;;18.15;34.44;101722.47;5094970;28;20044;-69
2022/03/23 10:16:15;;;;;;;20.35;13.77;;;;;;;19.42;32.97;101722.78;5095020;28;20032;-70
2022/03/23 10:18:56;;;;;;;21.50;13.48;;;;;;;19.53;32.88;101725.78;5095133;28;20064;-70
2022/03/23 10:21:27;;;;;;;23.15;13.88;;;;;;;20.32;30.05;101711.09;5093478;28;20165;-70
2022/03/23 10:24:00;;;;;;;21.70;14.52;;;;;;;20.09;30.79;101714.13;5094380;28;20032;-71
2022/03/23 10:26:27;;;;;;;20.05;13.70;;;;;;;19.88;31.06;101704.19;5094439;28;20043;-72
2022/03/23 10:28:54;;;;;;;21.63;14.52;;;;;;;19.66;33.69;101716.13;5094836;28;20028;-71
2022/03/23 10:31:21;;;;;;;24.88;14.38;;;;;;;20.36;32.12;101709.66;5094313;28;20055;-71
2022/03/23 10:34:10;;;;;;;22.33;13.27;;;;;;;20.56;31.55;101702.47;5094245;28;20496;-71
2022/03/23 10:36:39;;;;;;;20.98;13.93;;;;;;;21.46;29.53;101694.88;5094389;28;20027;-71
2022/03/23 10:39:10;;;;;;;19.50;14.07;;;;;;;21.80;29.41;101699.19;5092947;28;20028;-71
2022/03/23 10:41:36;;;;;;;22.42;13.93;;;;;;;21.94;30.10;101700.81;5076077;28;20668;-71
2022/03/23 10:44:02;;;;;;;21.23;14.13;;;;;;;21.42;30.28;101700.91;5094393;28;20062;-71
2022/03/23 10:46:28;;;;;;;20.92;14.65;;;;;;;20.85;29.23;101695.84;5093123;28;20036;-72
2022/03/23 10:49:01;;;;;;;20.48;15.13;;;;;;;21.36;28.53;101692.56;5094364;28;20051;-71
2022/03/23 10:51:33;;;;;;;22.50;14.82;;;;;;;22.80;25.74;101691.44;5094240;28;20039;-71
2022/03/23 10:54:11;;;;;;;19.27;14.00;;;;;;;23.11;26.13;101697.94;5094192;28;20040;-71
2022/03/23 10:56:38;;;;;;;19.45;14.10;;;;;;;22.32;25.39;101691.94;5094138;28;20127;-71
2022/03/23 10:59:15;;;;;;;20.03;14.27;;;;;;;21.79;26.51;101692.09;5094301;28;20093;-71
2022/03/23 11:02:05;;;;;;;22.85;14.80;;;;;;;22.62;26.23;101685.91;5093705;28;20394;-71
2022/03/23 11:04:49;;;;;;;19.45;14.13;;;;;;;23.31;25.40;101681.47;5094038;28;20040;-71
2022/03/23 11:07:39;;;;;;;19.83;14.07;;;;;;;24.39;22.83;101672.75;5094130;28;20089;-71
2022/03/23 11:15:49;;;;;;;18.75;13.07;;;;;;;24.40;23.03;101678.00;5093836;28;20135;-71
2022/03/23 11:18:17;;;;;;;19.35;13.70;;;;;;;22.73;22.98;101663.50;5093644;28;20492;-71
2022/03/23 11:20:51;;;;;;;18.13;14.10;;;;;;;24.52;22.44;101657.09;5093532;28;20063;-71
2022/03/23 11:23:30;;;;;;;19.88;13.05;;;;;;;25.10;19.63;101664.59;5093511;28;20495;-71
2022/03/23 11:26:14;;;;;;;17.80;12.80;;;;;;;23.59;20.21;101659.22;5094022;28;20050;-72
2022/03/23 11:28:42;;;;;;;20.20;13.15;;;;;;;26.07;19.28;101649.53;5093729;28;20439;-71
2022/03/23 11:31:09;;;;;;;15.02;12.30;;;;;;;25.78;18.48;101646.78;5093771;28;20476;-72
2022/03/23 11:33:37;;;;;;;14.88;11.57;;;;;;;23.86;21.54;101652.44;5094252;28;20111;-72
2022/03/23 11:36:07;;;;;;;16.83;12.68;;;;;;;24.52;21.02;101648.91;5091972;28;20064;-70
2022/03/23 11:38:33;;;;;;;14.30;11.85;;;;;;;24.73;20.38;101635.81;5093504;28;20497;-70
2022/03/23 11:41:00;;;;;;;14.10;11.10;;;;;;;25.44;17.72;101634.84;5092868;28;20028;-71
2022/03/23 11:43:37;;;;;;;14.90;12.00;;;;;;;26.24;17.00;101636.78;5092769;28;20036;-71
2022/03/23 11:46:04;;;;;;;17.33;12.57;;;;;;;26.05;17.78;101629.84;5093450;28;20031;-71
2022/03/23 11:48:46;;;;;;;14.75;12.15;;;;;;;24.90;18.50;101631.31;5093110;28;20032;-71
2022/03/23 11:51:15;;;;;;;14.65;12.25;;;;;;;24.77;21.01;101628.81;5093253;28;20101;-70
2022/03/23 11:54:28;;;;;;;13.27;11.57;;;;;;;24.63;17.31;101629.03;5092931;28;20040;-71
2022/03/23 11:56:58;;;;;;;11.93;10.45;;;;;;;26.35;16.68;101613.25;5037803;28;20056;-72
2022/03/23 11:59:28;;;;;;;11.25;9.43;;;;;;;26.76;14.92;101612.91;5093048;28;20059;-71
2022/03/23 12:01:55;;;;;;;13.18;9.27;;;;;;;26.55;15.45;101607.34;5092413;28;20032;-71
2022/03/23 12:04:23;;;;;;;13.88;10.02;;;;;;;25.80;15.84;101613.78;5093156;28;20435;-72
2022/03/23 12:07:09;;;;;;;12.43;10.25;;;;;;;25.65;16.56;101603.38;5092935;28;20032;-71
2022/03/23 12:09:44;;;;;;;11.38;10.23;;;;;;;26.06;14.21;101599.56;5092766;28;20086;-71
2022/03/23 12:12:29;;;;;;;13.10;9.73;;;;;;;26.06;15.20;101602.31;5092595;28;20028;-71
2022/03/23 12:15:24;;;;;;;13.23;9.98;;;;;;;26.96;14.06;101595.16;5092620;28;20441;-72
2022/03/23 12:17:59;;;;;;;13.23;10.63;;;;;;;26.70;14.14;101585.72;5091272;28;20039;-72
2022/03/23 12:20:32;;;;;;;10.07;9.10;;;;;;;27.62;13.87;101582.44;5090844;28;20039;-72
2022/03/23 12:23:55;;;;;;;11.55;9.15;;;;;;;26.12;14.19;101565.84;5092106;28;20188;-71
2022/03/23 12:26:37;;;;;;;10.00;8.27;;;;;;;27.16;12.38;101573.63;5049817;28;20422;-72
2022/03/23 12:29:20;;;;;;;9.45;8.32;;;;;;;26.54;13.00;101570.13;5049594;28;20036;-72
2022/03/23 12:31:45;;;;;;;9.27;7.90;;;;;;;24.64;15.94;101554.41;5078213;28;20094;-72
2022/03/23 12:34:19;;;;;;;9.38;7.88;;;;;;;25.06;14.78;101557.09;5092342;28;20432;-72
2022/03/23 12:36:56;;;;;;;12.63;7.50;;;;;;;23.74;16.19;101559.09;5093929;28;20101;-72
2022/03/23 12:39:31;;;;;;;10.45;8.45;;;;;;;24.65;15.77;101552.53;5093921;28;20068;-72
2022/03/23 12:41:59;;;;;;;9.55;8.18;;;;;;;25.86;13.91;101550.88;5090928;28;20163;-71
2022/03/23 12:44:33;;;;;;;9.77;7.78;;;;;;;26.85;13.34;101552.34;5092567;28;20097;-71
2022/03/23 12:47:20;;;;;;;9.02;8.13;;;;;;;26.76;13.11;101550.03;5094579;28;20115;-71
2022/03/23 12:58:18;;;;;;;9.50;8.43;;;;;;;26.68;13.94;101539.53;5092038;28;20392;-71
2022/03/23 13:00:51;;;;;;;9.93;8.88;;;;;;;25.34;15.96;101536.41;5091627;28;20512;-71
2022/03/23 13:03:20;;;;;;;11.43;8.25;;;;;;;27.53;14.49;101541.03;5091386;28;20032;-71
2022/03/23 13:05:57;;;;;;;12.50;8.65;;;;;;;27.86;14.05;101533.75;5091800;28;20032;-71
2022/03/23 13:08:46;;;;;;;10.20;8.10;;;;;;;26.38;16.31;101530.78;5091700;28;20126;-71
2022/03/23 13:11:12;;;;;;;9.55;8.52;;;;;;;26.34;15.41;101532.34;5090350;28;20370;-71
2022/03/23 13:13:39;;;;;;;10.00;8.38;;;;;;;26.89;14.70;101526.16;5091454;28;20034;-71
2022/03/23 13:16:09;;;;;;;9.38;8.10;;;;;;;27.16;14.19;101521.66;5091683;28;20469;-72
2022/03/23 13:18:37;;;;;;;13.20;8.68;;;;;;;24.94;16.81;101517.25;5091501;28;20036;-72
2022/03/23 13:21:10;;;;;;;9.15;8.25;;;;;;;25.57;16.49;101514.56;5091369;28;20040;-71
2022/03/23 13:23:40;;;;;;;10.70;8.93;;;;;;;25.87;15.64;101510.78;5091367;28;20036;-72
2022/03/23 13:26:09;;;;;;;9.25;7.90;;;;;;;24.34;17.32;101508.22;5089998;28;20047;-70
2022/03/23 13:28:43;;;;;;;10.80;8.68;;;;;;;23.72;17.97;101506.78;5091382;28;20042;-71
2022/03/23 13:31:11;;;;;;;9.60;8.60;;;;;;;23.40;19.02;101515.09;5091071;28;20044;-72
2022/03/23 13:33:41;;;;;;;11.27;8.80;;;;;;;24.52;16.72;101506.47;5090799;28;20028;-70
2022/03/23 13:36:09;;;;;;;12.25;8.98;;;;;;;24.89;16.64;101504.31;5106775;28;20042;-70
2022/03/23 13:38:49;;;;;;;12.25;9.30;;;;;;;24.84;16.19;101490.56;5091064;28;20039;-71
2022/03/23 13:44:02;;;;;;;11.32;8.20;;;;;;;26.71;15.46;101489.81;5094403;28;20047;-70
2022/03/23 13:46:29;;;;;;;11.15;9.57;;;;;;;27.17;14.60;101490.50;5095407;28;20111;-70
2022/03/23 13:49:10;;;;;;;15.30;9.93;;;;;;;27.37;14.44;101489.09;5093736;28;20040;-70
2022/03/23 13:51:47;;;;;;;11.27;8.60;;;;;;;26.49;14.53;101486.22;5095064;28;20107;-70
2022/03/23 13:54:20;;;;;;;10.85;9.35;;;;;;;27.37;13.66;101483.63;5095318;28;20028;-71
2022/03/23 13:56:49;;;;;;;10.90;9.80;;;;;;;27.47;14.49;101481.03;5095208;28;20036;-70
2022/03/23 13:59:19;;;;;;;13.90;10.45;;;;;;;27.07;15.13;101479.44;5095002;28;20118;-70
2022/03/23 14:01:47;;;;;;;10.68;9.63;;;;;;;27.28;14.17;101475.06;5094543;28;20349;-70
2022/03/23 14:04:17;;;;;;;10.93;8.40;;;;;;;26.11;15.74;101471.38;5094832;28;20032;-71
2022/03/23 14:06:45;;;;;;;10.02;8.40;;;;;;;26.88;14.39;101473.41;5094870;28;20023;-71
2022/03/23 14:09:12;;;;;;;9.88;8.88;;;;;;;25.79;15.10;101472.97;5093770;28;20366;-70
2022/03/23 14:14:27;;;;;;;10.30;9.30;;;;;;;23.63;17.76;101456.50;5094952;28;20032;-71
2022/03/23 14:16:57;;;;;;;11.15;9.32;;;;;;;22.46;19.29;101464.66;5094619;28;20077;-70
2022/03/23 14:19:22;;;;;;;11.73;8.88;;;;;;;21.44;20.09;101454.88;5094920;28;20117;-70
2022/03/23 14:21:48;;;;;;;12.25;8.63;;;;;;;21.34;19.49;101458.06;5094510;28;20409;-69
2022/03/23 14:24:15;;;;;;;12.95;9.68;;;;;;;20.90;21.77;101448.78;5094598;28;20496;-70
2022/03/23 14:26:40;;;;;;;12.20;9.30;;;;;;;20.54;20.75;101449.28;5094675;28;20405;-70
2022/03/23 14:29:22;;;;;;;13.55;9.35;;;;;;;21.11;19.43;101448.50;5094556;28;20051;-70
2022/03/23 14:31:51;;;;;;;12.00;9.30;;;;;;;20.55;19.72;101448.25;5094186;28;20362;-70
2022/03/23 14:34:26;;;;;;;13.77;9.15;;;;;;;20.46;19.60;101447.63;5094427;28;20127;-70
2022/03/23 14:37:09;;;;;;;13.52;9.40;;;;;;;20.58;19.76;101453.22;5094481;28;20045;-70
2022/03/23 14:39:43;;;;;;;13.80;9.68;;;;;;;20.20;20.25;101447.59;5094234;28;20035;-70
2022/03/23 14:42:13;;;;;;;13.18;9.38;;;;;;;20.16;22.06;101439.06;5094086;28;20032;-71
2022/03/23 14:44:44;;;;;;;12.60;9.52;;;;;;;20.09;20.99;101434.69;5094272;28;20058;-70
2022/03/23 14:47:10;;;;;;;14.10;10.70;;;;;;;20.52;20.14;101441.38;5094483;28;20047;-70
2022/03/23 14:49:46;;;;;;;15.17;9.33;;;;;;;19.89;20.98;101435.50;5094174;28;20032;-71
2022/03/23 14:52:14;;;;;;;14.30;9.15;;;;;;;19.95;23.63;101433.84;5093820;28;20024;-72
2022/03/23 14:54:41;;;;;;;11.70;8.98;;;;;;;19.89;22.75;101427.41;5093704;28;20032;-71
2022/03/23 14:57:12;;;;;;;14.75;9.95;;;;;;;19.84;21.58;101423.66;5094135;28;20082;-71
2022/03/23 14:59:47;;;;;;;14.20;9.88;;;;;;;20.05;20.67;101431.56;5094141;28;20039;-70
2022/03/23 15:02:15;;;;;;;16.55;11.10;;;;;;;20.10;20.70;101417.44;5093610;28;20051;-70
2022/03/23 15:04:41;;;;;;;15.80;10.88;;;;;;;19.74;20.93;101411.34;5094073;28;20036;-71
2022/03/23 15:13:15;;;;;;;13.48;10.40;;;;;;;19.43;21.35;101413.72;5094033;28;20067;-71
2022/03/23 15:15:45;;;;;;;14.57;9.75;;;;;;;19.12;24.04;101409.69;5094585;28;20066;-70
2022/03/23 15:18:13;;;;;;;15.90;9.60;;;;;;;19.42;21.71;101402.09;5092802;28;20089;-70
2022/03/23 15:20:40;;;;;;;17.88;10.75;;;;;;;19.10;22.96;101419.84;5093673;28;20024;-70
2022/03/23 15:23:07;;;;;;;13.98;10.48;;;;;;;19.19;21.78;101412.41;5093426;28;20036;-70
2022/03/23 15:25:37;;;;;;;15.13;10.77;;;;;;;19.36;22.15;101402.91;5093634;28;20056;-70
2022/03/23 15:28:04;;;;;;;15.65;9.85;;;;;;;19.20;22.42;101414.09;5093638;28;20114;-70
2022/03/23 15:30:31;;;;;;;13.63;9.82;;;;;;;19.16;22.16;101397.44;5093565;28;20028;-70
2022/03/23 15:32:56;;;;;;;15.17;9.90;;;;;;;19.42;21.14;101401.25;5093225;28;20035;-70
2022/03/23 15:35:23;;;;;;;14.43;10.40;;;;;;;19.39;21.25;101402.50;5093616;28;20278;-70
2022/03/23 15:37:52;;;;;;;14.75;10.15;;;;;;;19.38;21.38;101394.63;5093585;28;20040;-70
2022/03/23 15:40:19;;;;;;;12.18;9.35;;;;;;;19.22;21.10;101401.19;5093432;28;20044;-69
2022/03/23 15:43:03;;;;;;;13.45;9.52;;;;;;;19.35;20.56;101398.53;5091658;28;20032;-69
2022/03/23 15:45:34;;;;;;;12.63;9.65;;;;;;;19.42;20.41;101398.56;5093219;28;20039;-70
2022/03/23 15:48:01;;;;;;;12.50;9.77;;;;;;;19.37;20.40;101393.78;5093070;28;20036;-70
2022/03/23 15:50:26;;;;;;;13.15;9.73;;;;;;;19.29;21.52;101395.81;5093054;28;20024;-70
2022/03/23 15:52:53;;;;;;;13.93;10.05;;;;;;;19.27;21.39;101392.50;5092598;28;20419;-70
2022/03/23 15:55:19;;;;;;;13.95;10.40;;;;;;;19.22;21.62;101391.22;5091569;28;20109;-71
2022/03/23 15:57:45;;;;;;;15.55;10.50;;;;;;;19.17;21.51;101399.13;5092920;28;20032;-70
2022/03/23 16:00:11;;;;;;;15.43;9.80;;;;;;;18.85;22.03;101389.84;5092955;28;20101;-70
2022/03/23 16:02:37;;;;;;;15.43;10.38;;;;;;;19.01;21.83;101394.06;5092424;28;20036;-70
2022/03/23 16:05:04;;;;;;;13.60;10.15;;;;;;;19.14;21.87;101393.28;5092065;28;20090;-70
2022/03/23 16:07:31;;;;;;;13.93;10.82;;;;;;;19.13;21.98;101380.81;5092597;28;20027;-70
2022/03/23 16:09:58;;;;;;;17.48;10.68;;;;;;;19.09;22.24;101388.47;5092839;28;20051;-70
2022/03/23 16:12:23;;;;;;;12.95;9.57;;;;;;;19.12;22.66;101390.78;5092890;28;20131;-71
2022/03/23 16:14:49;;;;;;;16.63;11.00;;;;;;;19.01;22.22;101385.13;5092855;28;20481;-71
2022/03/23 16:17:15;;;;;;;15.15;11.05;;;;;;;18.92;22.47;101389.88;5090855;28;20453;-70
2022/03/23 16:19:42;;;;;;;14.88;10.93;;;;;;;18.69;23.22;101384.75;5074149;28;20485;-70
2022/03/23 16:22:08;;;;;;;16.13;12.70;;;;;;;18.68;23.03;101386.63;5090909;28;20031;-70
2022/03/23 16:24:34;;;;;;;14.85;11.07;;;;;;;18.77;22.69;101389.16;5092676;28;20557;-70
2022/03/23 16:27:01;;;;;;;16.42;10.80;;;;;;;18.76;23.13;101384.78;5092776;28;20070;-70
2022/03/23 16:29:27;;;;;;;15.77;10.68;;;;;;;18.78;22.77;101383.59;5092665;28;20040;-70
2022/03/23 16:31:52;;;;;;;16.50;10.73;;;;;;;18.80;22.52;101392.31;5091763;28;20051;-69
2022/03/23 16:34:19;;;;;;;16.05;10.52;;;;;;;18.54;22.65;101387.56;5091940;28;20107;-70
2022/03/23 16:36:47;;;;;;;14.00;9.93;;;;;;;18.63;22.60;101396.31;5092576;28;20128;-70
2022/03/23 16:39:13;;;;;;;14.00;10.93;;;;;;;18.55;22.50;101391.91;5090927;28;20992;-70
2022/03/23 16:41:40;;;;;;;15.00;11.00;;;;;;;18.32;23.13;101397.59;5090401;28;20036;-70
2022/03/23 16:44:11;;;;;;;14.70;10.02;;;;;;;18.45;22.66;101388.72;5091990;28;20123;-70
2022/03/23 16:46:41;;;;;;;14.25;10.30;;;;;;;18.47;22.84;101383.16;5091925;28;20058;-70
2022/03/23 16:49:08;;;;;;;14.65;9.57;;;;;;;18.25;23.82;101393.13;5093083;28;20042;-71
2022/03/23 16:51:36;;;;;;;16.98;10.05;;;;;;;18.00;23.83;101385.50;5094949;28;20085;-71
2022/03/23 16:54:03;;;;;;;17.83;11.00;;;;;;;18.02;23.56;101386.13;5092203;28;20039;-71
2022/03/23 16:56:32;;;;;;;13.95;10.63;;;;;;;18.02;23.26;101388.81;5092270;28;20028;-71
2022/03/23 16:58:59;;;;;;;13.52;9.85;;;;;;;17.88;23.81;101398.66;5091966;28;20089;-70
2022/03/23 17:01:29;;;;;;;15.15;9.95;;;;;;;17.75;24.17;101382.38;5092798;28;20055;-70
2022/03/23 17:12:26;;;;;;;14.13;10.30;;;;;;;17.63;24.14;101395.47;5091715;28;20107;-70
2022/03/23 17:14:59;;;;;;;12.93;9.82;;;;;;;17.62;23.88;101401.06;5090553;28;20055;-70
2022/03/23 17:17:26;;;;;;;15.77;10.13;;;;;;;17.56;23.91;101396.44;5091707;28;20032;-73
2022/03/23 17:19:56;;;;;;;17.05;10.15;;;;;;;17.51;23.88;101391.63;5090429;28;20031;-71
2022/03/23 17:22:25;;;;;;;16.15;9.25;;;;;;;17.47;23.96;101401.09;5091317;28;20123;-72
2022/03/23 17:24:52;;;;;;;13.60;10.20;;;;;;;17.41;24.13;101390.25;5091817;28;20531;-71
2022/03/23 17:27:17;;;;;;;17.45;10.13;;;;;;;17.29;24.61;101396.16;5091655;28;20466;-70